sensor_id;sensor_type;location;lat;lon;timestamp;pressure;altitude;pressure_sealevel;temperature;humidity
71857;BME280;63344;46.980;28.882;2023-05-20T00:01:53;101070.88;;;19.27;53.34
71857;BME280;63344;46.980;28.882;2023-05-20T00:04:21;101069.28;;;19.24;53.69
71857;BME280;63344;46.980;28.882;2023-05-20T00:06:48;101070.34;;;19.22;53.99
71857;BME280;63344;46.980;28.882;2023-05-20T00:09:16;101069.69;;;19.18;53.65
71857;BME280;63344;46.980;28.882;2023-05-20T00:11:45;101066.34;;;19.15;54.30
71857;BME280;63344;46.980;28.882;2023-05-20T00:14:13;101060.28;;;19.11;54.58
71857;BME280;63344;46.980;28.882;2023-05-20T00:16:40;101071.94;;;19.12;54.38
71857;BME280;63344;46.980;28.882;2023-05-20T00:19:08;101070.31;;;19.09;54.48
71857;BME280;63344;46.980;28.882;2023-05-20T00:21:36;101065.03;;;19.07;54.57
71857;BME280;63344;46.980;28.882;2023-05-20T00:24:05;101084.75;;;19.08;54.80
71857;BME280;63344;46.980;28.882;2023-05-20T00:26:32;101067.94;;;19.04;55.11
71857;BME280;63344;46.980;28.882;2023-05-20T00:29:03;101071.59;;;19.03;55.03
71857;BME280;63344;46.980;28.882;2023-05-20T00:31:30;101075.25;;;19.02;55.12
71857;BME280;63344;46.980;28.882;2023-05-20T00:33:57;101067.25;;;19.01;55.06
71857;BME280;63344;46.980;28.882;2023-05-20T00:36:25;101070.09;;;18.99;55.25
71857;BME280;63344;46.980;28.882;2023-05-20T00:38:53;101061.25;;;18.97;55.56
71857;BME280;63344;46.980;28.882;2023-05-20T00:41:20;101065.88;;;18.95;55.67
71857;BME280;63344;46.980;28.882;2023-05-20T00:43:54;101064.22;;;18.93;55.72
71857;BME280;63344;46.980;28.882;2023-05-20T00:46:22;101067.00;;;18.91;55.80
71857;BME280;63344;46.980;28.882;2023-05-20T00:48:50;101065.50;;;18.87;56.25
71857;BME280;63344;46.980;28.882;2023-05-20T00:51:17;101059.34;;;18.85;55.75
71857;BME280;63344;46.980;28.882;2023-05-20T00:53:45;101071.28;;;18.81;55.92
71857;BME280;63344;46.980;28.882;2023-05-20T00:56:12;101060.53;;;18.81;56.00
71857;BME280;63344;46.980;28.882;2023-05-20T00:58:40;101057.81;;;18.81;56.73
71857;BME280;63344;46.980;28.882;2023-05-20T01:01:07;101063.41;;;18.78;56.59
71857;BME280;63344;46.980;28.882;2023-05-20T01:03:35;101066.19;;;18.76;56.67
71857;BME280;63344;46.980;28.882;2023-05-20T01:06:02;101058.00;;;18.78;56.75
71857;BME280;63344;46.980;28.882;2023-05-20T01:08:30;101057.97;;;18.79;56.89
71857;BME280;63344;46.980;28.882;2023-05-20T01:11:24;101052.44;;;18.81;57.12
71857;BME280;63344;46.980;28.882;2023-05-20T01:13:58;101062.16;;;18.83;57.00
71857;BME280;63344;46.980;28.882;2023-05-20T01:16:27;101058.59;;;18.83;57.46
71857;BME280;63344;46.980;28.882;2023-05-20T01:18:57;101058.72;;;18.81;57.42
71857;BME280;63344;46.980;28.882;2023-05-20T01:21:27;101045.41;;;18.78;57.49
71857;BME280;63344;46.980;28.882;2023-05-20T01:23:56;101058.81;;;18.80;57.65
71857;BME280;63344;46.980;28.882;2023-05-20T01:26:23;101059.94;;;18.76;57.43
71857;BME280;63344;46.980;28.882;2023-05-20T01:28:53;101054.75;;;18.73;57.89
71857;BME280;63344;46.980;28.882;2023-05-20T01:31:23;101050.44;;;18.70;57.92
71857;BME280;63344;46.980;28.882;2023-05-20T01:33:55;101058.63;;;18.68;58.22
71857;BME280;63344;46.980;28.882;2023-05-20T01:36:27;101049.00;;;18.64;58.01
71857;BME280;63344;46.980;28.882;2023-05-20T01:38:55;101049.09;;;18.63;58.17
71857;BME280;63344;46.980;28.882;2023-05-20T01:41:24;101050.19;;;18.60;58.49
71857;BME280;63344;46.980;28.882;2023-05-20T01:43:54;101053.09;;;18.57;58.28
71857;BME280;63344;46.980;28.882;2023-05-20T01:46:21;101047.81;;;18.56;58.74
71857;BME280;63344;46.980;28.882;2023-05-20T01:48:49;101041.53;;;18.55;58.50
71857;BME280;63344;46.980;28.882;2023-05-20T01:51:16;101056.72;;;18.56;58.82
71857;BME280;63344;46.980;28.882;2023-05-20T01:53:45;101062.19;;;18.55;58.86
71857;BME280;63344;46.980;28.882;2023-05-20T01:56:12;101053.38;;;18.52;59.07
71857;BME280;63344;46.980;28.882;2023-05-20T01:58:40;101056.16;;;18.51;58.99
71857;BME280;63344;46.980;28.882;2023-05-20T02:01:08;101063.47;;;18.49;58.97
71857;BME280;63344;46.980;28.882;2023-05-20T02:03:36;101054.63;;;18.47;59.17
71857;BME280;63344;46.980;28.882;2023-05-20T02:06:04;101060.31;;;18.42;59.27
71857;BME280;63344;46.980;28.882;2023-05-20T02:08:31;101053.22;;;18.41;59.25
71857;BME280;63344;46.980;28.882;2023-05-20T02:10:58;101073.09;;;18.39;59.65
71857;BME280;63344;46.980;28.882;2023-05-20T02:13:26;101059.88;;;18.36;59.65
71857;BME280;63344;46.980;28.882;2023-05-20T02:15:53;101067.16;;;18.34;59.96
71857;BME280;63344;46.980;28.882;2023-05-20T02:18:21;101067.34;;;18.30;60.23
71857;BME280;63344;46.980;28.882;2023-05-20T02:20:48;101060.91;;;18.33;60.37
71857;BME280;63344;46.980;28.882;2023-05-20T02:23:16;101063.91;;;18.28;60.35
71857;BME280;63344;46.980;28.882;2023-05-20T02:25:44;101059.50;;;18.27;59.98
71857;BME280;63344;46.980;28.882;2023-05-20T02:28:12;101059.69;;;18.24;60.33
71857;BME280;63344;46.980;28.882;2023-05-20T02:30:39;101071.59;;;18.20;60.80
71857;BME280;63344;46.980;28.882;2023-05-20T02:33:07;101074.47;;;18.17;60.71
71857;BME280;63344;46.980;28.882;2023-05-20T02:35:35;101077.16;;;18.17;61.09
71857;BME280;63344;46.980;28.882;2023-05-20T02:38:03;101093.41;;;18.16;60.90
71857;BME280;63344;46.980;28.882;2023-05-20T02:40:30;101096.25;;;18.13;61.07
71857;BME280;63344;46.980;28.882;2023-05-20T02:42:59;101087.34;;;18.12;61.06
71857;BME280;63344;46.980;28.882;2023-05-20T02:45:27;101095.50;;;18.10;60.96
71857;BME280;63344;46.980;28.882;2023-05-20T02:47:55;101092.72;;;18.12;61.42
71857;BME280;63344;46.980;28.882;2023-05-20T02:50:22;101083.59;;;18.15;61.54
71857;BME280;63344;46.980;28.882;2023-05-20T02:52:51;101088.66;;;18.19;61.22
71857;BME280;63344;46.980;28.882;2023-05-20T02:55:18;101089.47;;;18.21;61.63
71857;BME280;63344;46.980;28.882;2023-05-20T02:57:46;101091.19;;;18.22;61.26
71857;BME280;63344;46.980;28.882;2023-05-20T03:00:14;101083.78;;;18.26;61.28
71857;BME280;63344;46.980;28.882;2023-05-20T03:02:43;101098.66;;;18.31;61.27
71857;BME280;63344;46.980;28.882;2023-05-20T03:05:10;101084.91;;;18.36;61.22
71857;BME280;63344;46.980;28.882;2023-05-20T03:07:38;101092.31;;;18.33;61.29
71857;BME280;63344;46.980;28.882;2023-05-20T03:10:06;101095.41;;;18.26;61.31
71857;BME280;63344;46.980;28.882;2023-05-20T03:12:35;101090.22;;;18.23;61.36
71857;BME280;63344;46.980;28.882;2023-05-20T03:15:04;101094.03;;;18.19;61.60
71857;BME280;63344;46.980;28.882;2023-05-20T03:17:32;101091.66;;;18.15;62.26
71857;BME280;63344;46.980;28.882;2023-05-20T03:20:00;101091.75;;;18.13;62.06
71857;BME280;63344;46.980;28.882;2023-05-20T03:22:30;101097.34;;;18.10;62.00
71857;BME280;63344;46.980;28.882;2023-05-20T03:24:57;101097.41;;;18.08;62.27
71857;BME280;63344;46.980;28.882;2023-05-20T03:27:29;101095.31;;;18.14;62.55
71857;BME280;63344;46.980;28.882;2023-05-20T03:29:58;101092.91;;;18.09;62.57
71857;BME280;63344;46.980;28.882;2023-05-20T03:32:31;101100.78;;;18.12;62.66
71857;BME280;63344;46.980;28.882;2023-05-20T03:34:58;101101.56;;;18.14;62.65
71857;BME280;63344;46.980;28.882;2023-05-20T03:37:30;101103.25;;;18.15;62.43
71857;BME280;63344;46.980;28.882;2023-05-20T03:39:58;101104.16;;;18.16;62.60
71857;BME280;63344;46.980;28.882;2023-05-20T03:42:33;101102.22;;;18.18;62.96
71857;BME280;63344;46.980;28.882;2023-05-20T03:45:00;101112.78;;;18.21;62.80
71857;BME280;63344;46.980;28.882;2023-05-20T03:47:31;101110.00;;;18.22;62.78
71857;BME280;63344;46.980;28.882;2023-05-20T03:49:58;101120.56;;;18.25;63.11
71857;BME280;63344;46.980;28.882;2023-05-20T03:52:26;101109.59;;;18.28;63.17
71857;BME280;63344;46.980;28.882;2023-05-20T03:54:55;101105.75;;;18.33;63.19
71857;BME280;63344;46.980;28.882;2023-05-20T03:57:30;101112.41;;;18.41;62.88
71857;BME280;63344;46.980;28.882;2023-05-20T03:59:58;101117.25;;;18.63;62.81
71857;BME280;63344;46.980;28.882;2023-05-20T04:02:26;101121.41;;;18.96;62.86
71857;BME280;63344;46.980;28.882;2023-05-20T04:05:48;101122.44;;;19.61;61.17
71857;BME280;63344;46.980;28.882;2023-05-20T04:08:45;101114.44;;;19.99;60.10
71857;BME280;63344;46.980;28.882;2023-05-20T04:11:52;101123.78;;;20.32;59.04
71857;BME280;63344;46.980;28.882;2023-05-20T04:14:20;101127.88;;;20.38;57.79
71857;BME280;63344;46.980;28.882;2023-05-20T04:16:48;101121.44;;;20.27;58.21
71857;BME280;63344;46.980;28.882;2023-05-20T04:19:16;101123.06;;;20.17;58.56
71857;BME280;63344;46.980;28.882;2023-05-20T04:21:45;101117.75;;;20.03;58.61
71857;BME280;63344;46.980;28.882;2023-05-20T04:24:13;101120.06;;;19.83;58.63
71857;BME280;63344;46.980;28.882;2023-05-20T04:26:41;101116.31;;;19.59;59.11
71857;BME280;63344;46.980;28.882;2023-05-20T04:29:23;101115.78;;;19.54;59.78
71857;BME280;63344;46.980;28.882;2023-05-20T04:32:20;101124.81;;;19.53;59.99
71857;BME280;63344;46.980;28.882;2023-05-20T04:34:57;101118.66;;;19.50;60.21
71857;BME280;63344;46.980;28.882;2023-05-20T04:37:25;101125.56;;;19.55;60.05
71857;BME280;63344;46.980;28.882;2023-05-20T04:39:53;101129.34;;;19.65;60.44
71857;BME280;63344;46.980;28.882;2023-05-20T04:42:20;101131.69;;;19.84;60.40
71857;BME280;63344;46.980;28.882;2023-05-20T04:44:48;101134.81;;;19.90;59.82
71857;BME280;63344;46.980;28.882;2023-05-20T04:47:16;101137.31;;;19.94;59.60
71857;BME280;63344;46.980;28.882;2023-05-20T04:49:43;101133.53;;;20.09;59.89
71857;BME280;63344;46.980;28.882;2023-05-20T04:52:11;101135.03;;;20.26;59.48
71857;BME280;63344;46.980;28.882;2023-05-20T04:54:39;101133.91;;;20.54;59.44
71857;BME280;63344;46.980;28.882;2023-05-20T04:57:07;101136.78;;;20.77;59.12
71857;BME280;63344;46.980;28.882;2023-05-20T04:59:36;101134.97;;;21.01;58.26
71857;BME280;63344;46.980;28.882;2023-05-20T05:02:03;101139.94;;;21.19;57.07
71857;BME280;63344;46.980;28.882;2023-05-20T05:04:32;101141.34;;;21.48;57.83
71857;BME280;63344;46.980;28.882;2023-05-20T05:06:59;101132.34;;;21.83;56.40
71857;BME280;63344;46.980;28.882;2023-05-20T05:09:26;101136.97;;;22.17;56.01
71857;BME280;63344;46.980;28.882;2023-05-20T05:11:54;101127.47;;;22.56;55.59
71857;BME280;63344;46.980;28.882;2023-05-20T05:14:22;101124.88;;;22.89;53.68
71857;BME280;63344;46.980;28.882;2023-05-20T05:16:50;101132.09;;;22.88;52.70
71857;BME280;63344;46.980;28.882;2023-05-20T05:19:21;101134.47;;;22.81;53.24
71857;BME280;63344;46.980;28.882;2023-05-20T05:21:49;101130.63;;;22.84;53.60
71857;BME280;63344;46.980;28.882;2023-05-20T05:24:18;101136.28;;;23.03;53.06
71857;BME280;63344;46.980;28.882;2023-05-20T05:26:45;101143.16;;;23.19;52.01
71857;BME280;63344;46.980;28.882;2023-05-20T05:29:13;101129.19;;;23.23;51.99
71857;BME280;63344;46.980;28.882;2023-05-20T05:31:41;101133.47;;;23.37;51.87
71857;BME280;63344;46.980;28.882;2023-05-20T05:34:08;101130.53;;;23.50;52.32
71857;BME280;63344;46.980;28.882;2023-05-20T05:36:38;101137.31;;;23.56;50.91
71857;BME280;63344;46.980;28.882;2023-05-20T05:39:08;101138.03;;;23.58;50.34
71857;BME280;63344;46.980;28.882;2023-05-20T05:41:38;101131.56;;;23.49;49.41
71857;BME280;63344;46.980;28.882;2023-05-20T05:44:15;101132.53;;;23.48;50.04
71857;BME280;63344;46.980;28.882;2023-05-20T05:46:42;101141.59;;;23.58;50.59
71857;BME280;63344;46.980;28.882;2023-05-20T05:49:09;101136.84;;;23.51;49.94
71857;BME280;63344;46.980;28.882;2023-05-20T05:51:38;101138.28;;;23.34;49.84
71857;BME280;63344;46.980;28.882;2023-05-20T05:54:06;101146.78;;;22.85;50.36
71857;BME280;63344;46.980;28.882;2023-05-20T05:56:34;101140.41;;;22.64;51.12
71857;BME280;63344;46.980;28.882;2023-05-20T05:59:05;101148.91;;;22.48;51.24
71857;BME280;63344;46.980;28.882;2023-05-20T06:01:33;101144.69;;;22.21;51.53
71857;BME280;63344;46.980;28.882;2023-05-20T06:04:01;101147.78;;;22.17;52.32
71857;BME280;63344;46.980;28.882;2023-05-20T06:06:33;101137.56;;;22.20;52.71
71857;BME280;63344;46.980;28.882;2023-05-20T06:09:06;101139.94;;;22.36;52.88
71857;BME280;63344;46.980;28.882;2023-05-20T06:11:35;101144.13;;;22.29;52.23
71857;BME280;63344;46.980;28.882;2023-05-20T06:14:04;101139.63;;;22.05;52.40
71857;BME280;63344;46.980;28.882;2023-05-20T06:16:33;101147.63;;;21.96;53.12
71857;BME280;63344;46.980;28.882;2023-05-20T06:19:02;101135.81;;;21.85;53.23
71857;BME280;63344;46.980;28.882;2023-05-20T06:21:33;101133.59;;;22.02;53.63
71857;BME280;63344;46.980;28.882;2023-05-20T06:24:29;101134.00;;;22.20;53.37
71857;BME280;63344;46.980;28.882;2023-05-20T06:27:02;101138.22;;;22.35;52.28
71857;BME280;63344;46.980;28.882;2023-05-20T06:30:14;101136.38;;;22.36;52.75
71857;BME280;63344;46.980;28.882;2023-05-20T06:33:16;101137.59;;;22.43;52.34
71857;BME280;63344;46.980;28.882;2023-05-20T06:35:47;101138.47;;;22.43;52.35
71857;BME280;63344;46.980;28.882;2023-05-20T06:38:57;101134.41;;;22.38;52.64
71857;BME280;63344;46.980;28.882;2023-05-20T06:41:24;101125.41;;;22.26;53.03
71857;BME280;63344;46.980;28.882;2023-05-20T06:43:54;101131.69;;;22.26;52.51
71857;BME280;63344;46.980;28.882;2023-05-20T06:46:27;101119.47;;;22.10;52.37
71857;BME280;63344;46.980;28.882;2023-05-20T06:51:59;101133.00;;;22.10;53.26
71857;BME280;63344;46.980;28.882;2023-05-20T06:55:06;101132.63;;;22.14;52.52
71857;BME280;63344;46.980;28.882;2023-05-20T06:57:52;101132.88;;;22.22;52.47
71857;BME280;63344;46.980;28.882;2023-05-20T07:00:21;101133.78;;;22.34;52.88
71857;BME280;63344;46.980;28.882;2023-05-20T07:02:50;101129.09;;;22.47;52.81
71857;BME280;63344;46.980;28.882;2023-05-20T07:05:22;101134.25;;;22.62;52.55
71857;BME280;63344;46.980;28.882;2023-05-20T07:07:50;101134.84;;;22.77;52.22
71857;BME280;63344;46.980;28.882;2023-05-20T07:10:17;101131.16;;;22.78;51.73
71857;BME280;63344;46.980;28.882;2023-05-20T07:12:45;101126.59;;;22.78;50.30
71857;BME280;63344;46.980;28.882;2023-05-20T07:15:12;101122.06;;;22.79;50.77
71857;BME280;63344;46.980;28.882;2023-05-20T07:17:41;101121.28;;;22.88;50.48
71857;BME280;63344;46.980;28.882;2023-05-20T07:20:08;101130.50;;;22.97;49.55
71857;BME280;63344;46.980;28.882;2023-05-20T07:22:36;101123.47;;;23.05;49.84
71857;BME280;63344;46.980;28.882;2023-05-20T07:25:03;101127.88;;;23.06;49.59
71857;BME280;63344;46.980;28.882;2023-05-20T07:27:31;101120.13;;;23.13;49.74
71857;BME280;63344;46.980;28.882;2023-05-20T07:29:58;101108.13;;;23.27;49.24
71857;BME280;63344;46.980;28.882;2023-05-20T07:32:26;101117.75;;;23.20;48.97
71857;BME280;63344;46.980;28.882;2023-05-20T07:34:53;101102.13;;;23.12;49.84
71857;BME280;63344;46.980;28.882;2023-05-20T07:37:23;101098.78;;;23.20;49.84
71857;BME280;63344;46.980;28.882;2023-05-20T07:39:51;101108.84;;;23.29;49.42
71857;BME280;63344;46.980;28.882;2023-05-20T07:42:18;101104.81;;;23.44;48.86
71857;BME280;63344;46.980;28.882;2023-05-20T07:44:45;101107.34;;;23.57;48.82
71857;BME280;63344;46.980;28.882;2023-05-20T07:47:13;101111.91;;;23.57;48.80
71857;BME280;63344;46.980;28.882;2023-05-20T07:49:41;101111.91;;;23.57;48.65
71857;BME280;63344;46.980;28.882;2023-05-20T07:52:10;101108.41;;;23.66;48.12
71857;BME280;63344;46.980;28.882;2023-05-20T07:54:38;101110.28;;;23.87;48.04
71857;BME280;63344;46.980;28.882;2023-05-20T07:57:05;101122.19;;;23.95;47.54
71857;BME280;63344;46.980;28.882;2023-05-20T07:59:33;101109.94;;;24.01;47.33
71857;BME280;63344;46.980;28.882;2023-05-20T08:02:00;101116.91;;;24.24;47.26
71857;BME280;63344;46.980;28.882;2023-05-20T08:04:28;101116.44;;;24.50;47.37
71857;BME280;63344;46.980;28.882;2023-05-20T08:06:56;101109.22;;;24.80;47.14
71857;BME280;63344;46.980;28.882;2023-05-20T08:09:24;101118.91;;;25.23;46.68
71857;BME280;63344;46.980;28.882;2023-05-20T08:11:52;101118.72;;;25.54;45.37
71857;BME280;63344;46.980;28.882;2023-05-20T08:14:19;101108.97;;;25.80;44.72
71857;BME280;63344;46.980;28.882;2023-05-20T08:16:47;101112.09;;;25.95;43.63
71857;BME280;63344;46.980;28.882;2023-05-20T08:19:14;101115.13;;;25.92;42.70
71857;BME280;63344;46.980;28.882;2023-05-20T08:21:43;101113.97;;;25.95;43.31
71857;BME280;63344;46.980;28.882;2023-05-20T08:24:18;101121.66;;;26.09;41.74
71857;BME280;63344;46.980;28.882;2023-05-20T08:27:31;101109.50;;;26.03;40.59
71857;BME280;63344;46.980;28.882;2023-05-20T08:29:59;101116.25;;;26.37;40.96
71857;BME280;63344;46.980;28.882;2023-05-20T08:32:26;101105.25;;;26.66;40.60
71857;BME280;63344;46.980;28.882;2023-05-20T08:34:54;101109.91;;;26.46;41.11
71857;BME280;63344;46.980;28.882;2023-05-20T08:37:22;101101.44;;;27.13;39.92
71857;BME280;63344;46.980;28.882;2023-05-20T08:40:12;101105.38;;;27.72;38.55
71857;BME280;63344;46.980;28.882;2023-05-20T08:42:43;101111.53;;;27.92;37.81
71857;BME280;63344;46.980;28.882;2023-05-20T08:45:16;101112.72;;;28.58;37.84
71857;BME280;63344;46.980;28.882;2023-05-20T08:47:43;101103.66;;;29.25;35.99
71857;BME280;63344;46.980;28.882;2023-05-20T08:50:12;101102.31;;;29.54;34.38
71857;BME280;63344;46.980;28.882;2023-05-20T08:52:44;101112.38;;;29.53;33.36
71857;BME280;63344;46.980;28.882;2023-05-20T08:55:25;101113.75;;;29.66;33.35
71857;BME280;63344;46.980;28.882;2023-05-20T08:57:56;101101.78;;;29.50;33.62
71857;BME280;63344;46.980;28.882;2023-05-20T09:00:24;101105.72;;;29.64;34.13
71857;BME280;63344;46.980;28.882;2023-05-20T09:03:02;101106.84;;;30.11;32.36
71857;BME280;63344;46.980;28.882;2023-05-20T09:05:30;101105.94;;;30.35;32.03
71857;BME280;63344;46.980;28.882;2023-05-20T09:08:11;101105.25;;;30.25;32.48
71857;BME280;63344;46.980;28.882;2023-05-20T09:10:40;101097.72;;;30.27;31.89
71857;BME280;63344;46.980;28.882;2023-05-20T09:13:10;101098.78;;;30.57;31.62
71857;BME280;63344;46.980;28.882;2023-05-20T09:15:38;101094.44;;;30.71;32.07
71857;BME280;63344;46.980;28.882;2023-05-20T09:18:06;101083.25;;;31.12;28.14
71857;BME280;63344;46.980;28.882;2023-05-20T09:20:36;101085.38;;;31.02;29.55
71857;BME280;63344;46.980;28.882;2023-05-20T09:23:08;101090.09;;;30.06;30.85
71857;BME280;63344;46.980;28.882;2023-05-20T09:25:36;101083.66;;;29.33;32.17
71857;BME280;63344;46.980;28.882;2023-05-20T09:28:05;101081.38;;;28.95;33.31
71857;BME280;63344;46.980;28.882;2023-05-20T09:30:33;101073.25;;;28.53;33.14
71857;BME280;63344;46.980;28.882;2023-05-20T09:33:03;101076.19;;;27.91;33.12
71857;BME280;63344;46.980;28.882;2023-05-20T09:35:34;101072.00;;;27.34;33.80
71857;BME280;63344;46.980;28.882;2023-05-20T09:38:05;101066.31;;;26.92;34.79
71857;BME280;63344;46.980;28.882;2023-05-20T09:40:35;101073.25;;;26.68;35.56
71857;BME280;63344;46.980;28.882;2023-05-20T09:43:06;101070.81;;;26.55;35.63
71857;BME280;63344;46.980;28.882;2023-05-20T09:45:34;101066.75;;;26.41;35.45
71857;BME280;63344;46.980;28.882;2023-05-20T09:48:06;101073.28;;;26.31;34.54
71857;BME280;63344;46.980;28.882;2023-05-20T09:50:40;101070.72;;;26.19;34.74
71857;BME280;63344;46.980;28.882;2023-05-20T09:53:09;101069.03;;;26.18;34.71
71857;BME280;63344;46.980;28.882;2023-05-20T09:55:40;101071.19;;;26.15;33.75
71857;BME280;63344;46.980;28.882;2023-05-20T09:58:13;101065.59;;;26.16;33.85
71857;BME280;63344;46.980;28.882;2023-05-20T10:00:57;101058.91;;;26.66;32.96
71857;BME280;63344;46.980;28.882;2023-05-20T10:03:25;101054.16;;;26.68;33.14
71857;BME280;63344;46.980;28.882;2023-05-20T10:08:46;101048.94;;;26.47;32.83
71857;BME280;63344;46.980;28.882;2023-05-20T10:14:37;101050.81;;;26.19;33.90
71857;BME280;63344;46.980;28.882;2023-05-20T10:17:30;101054.91;;;26.05;33.39
71857;BME280;63344;46.980;28.882;2023-05-20T10:20:07;101047.19;;;26.00;32.40
71857;BME280;63344;46.980;28.882;2023-05-20T10:22:58;101045.22;;;25.93;31.66
71857;BME280;63344;46.980;28.882;2023-05-20T10:25:27;101051.81;;;25.90;31.67
71857;BME280;63344;46.980;28.882;2023-05-20T10:28:33;101038.22;;;25.90;32.17
71857;BME280;63344;46.980;28.882;2023-05-20T10:31:13;101047.09;;;25.92;32.12
71857;BME280;63344;46.980;28.882;2023-05-20T10:33:51;101044.59;;;25.99;32.38
71857;BME280;63344;46.980;28.882;2023-05-20T10:36:33;101049.16;;;26.08;33.16
71857;BME280;63344;46.980;28.882;2023-05-20T10:39:02;101042.78;;;26.17;34.80
71857;BME280;63344;46.980;28.882;2023-05-20T10:41:39;101041.38;;;26.13;34.02
71857;BME280;63344;46.980;28.882;2023-05-20T10:44:25;101037.91;;;26.21;35.40
71857;BME280;63344;46.980;28.882;2023-05-20T10:47:02;101030.72;;;26.20;36.06
71857;BME280;63344;46.980;28.882;2023-05-20T10:49:53;101031.09;;;26.98;35.84
71857;BME280;63344;46.980;28.882;2023-05-20T10:52:38;101026.38;;;27.45;33.25
71857;BME280;63344;46.980;28.882;2023-05-20T10:55:06;101020.53;;;27.21;33.16
71857;BME280;63344;46.980;28.882;2023-05-20T10:57:37;101017.06;;;27.11;34.33
71857;BME280;63344;46.980;28.882;2023-05-20T11:00:08;101018.88;;;27.02;34.65
71857;BME280;63344;46.980;28.882;2023-05-20T11:02:37;101018.88;;;26.85;34.65
71857;BME280;63344;46.980;28.882;2023-05-20T11:05:25;101014.13;;;26.69;35.13
71857;BME280;63344;46.980;28.882;2023-05-20T11:08:08;101023.00;;;26.71;32.64
71857;BME280;63344;46.980;28.882;2023-05-20T11:10:58;101010.94;;;26.73;30.82
71857;BME280;63344;46.980;28.882;2023-05-20T11:13:26;101008.75;;;26.77;30.56
71857;BME280;63344;46.980;28.882;2023-05-20T11:16:08;101012.88;;;26.81;30.41
71857;BME280;63344;46.980;28.882;2023-05-20T11:18:36;101019.88;;;26.83;30.61
71857;BME280;63344;46.980;28.882;2023-05-20T11:21:10;101023.09;;;26.79;30.43
71857;BME280;63344;46.980;28.882;2023-05-20T11:23:41;101020.91;;;26.65;30.82
71857;BME280;63344;46.980;28.882;2023-05-20T11:26:14;101014.94;;;26.51;30.86
71857;BME280;63344;46.980;28.882;2023-05-20T11:28:47;101012.75;;;26.37;30.86
71857;BME280;63344;46.980;28.882;2023-05-20T11:31:58;101016.19;;;26.11;31.27
71857;BME280;63344;46.980;28.882;2023-05-20T11:34:35;101015.84;;;25.96;32.22
71857;BME280;63344;46.980;28.882;2023-05-20T11:37:07;101022.28;;;25.86;32.38
71857;BME280;63344;46.980;28.882;2023-05-20T11:39:36;101018.72;;;25.75;32.65
71857;BME280;63344;46.980;28.882;2023-05-20T11:42:07;101019.22;;;25.61;32.97
71857;BME280;63344;46.980;28.882;2023-05-20T11:44:42;101011.66;;;25.55;33.20
71857;BME280;63344;46.980;28.882;2023-05-20T11:47:15;101009.78;;;25.55;33.56
71857;BME280;63344;46.980;28.882;2023-05-20T11:49:51;101008.91;;;25.64;33.78
71857;BME280;63344;46.980;28.882;2023-05-20T11:52:18;101004.66;;;25.80;33.56
71857;BME280;63344;46.980;28.882;2023-05-20T11:54:52;100992.97;;;26.07;33.60
71857;BME280;63344;46.980;28.882;2023-05-20T11:57:19;100998.50;;;26.43;32.63
71857;BME280;63344;46.980;28.882;2023-05-20T11:59:48;100999.19;;;26.45;33.02
71857;BME280;63344;46.980;28.882;2023-05-20T12:02:15;100999.41;;;26.61;32.69
71857;BME280;63344;46.980;28.882;2023-05-20T12:04:44;100995.16;;;27.21;30.83
71857;BME280;63344;46.980;28.882;2023-05-20T12:07:11;100993.69;;;27.09;31.44
71857;BME280;63344;46.980;28.882;2023-05-20T12:09:44;100993.84;;;27.25;30.92
71857;BME280;63344;46.980;28.882;2023-05-20T12:12:12;100986.84;;;27.83;29.75
71857;BME280;63344;46.980;28.882;2023-05-20T12:14:40;100984.66;;;28.21;29.77
71857;BME280;63344;46.980;28.882;2023-05-20T12:17:07;100972.91;;;28.37;28.62
71857;BME280;63344;46.980;28.882;2023-05-20T12:19:35;100968.81;;;28.49;28.73
71857;BME280;63344;46.980;28.882;2023-05-20T12:22:11;100968.03;;;27.98;29.04
71857;BME280;63344;46.980;28.882;2023-05-20T12:24:39;100973.97;;;27.33;30.26
71857;BME280;63344;46.980;28.882;2023-05-20T12:27:07;100972.91;;;26.90;31.35
71857;BME280;63344;46.980;28.882;2023-05-20T12:29:35;100970.59;;;26.59;30.82
71857;BME280;63344;46.980;28.882;2023-05-20T12:32:03;100982.84;;;26.27;31.10
71857;BME280;63344;46.980;28.882;2023-05-20T12:34:35;100981.63;;;26.12;30.35
71857;BME280;63344;46.980;28.882;2023-05-20T12:37:07;100974.22;;;26.04;29.31
71857;BME280;63344;46.980;28.882;2023-05-20T12:39:37;100971.81;;;26.01;29.46
71857;BME280;63344;46.980;28.882;2023-05-20T12:42:05;100969.25;;;25.99;28.91
71857;BME280;63344;46.980;28.882;2023-05-20T12:44:33;100970.94;;;26.28;28.81
71857;BME280;63344;46.980;28.882;2023-05-20T12:47:00;100968.53;;;26.43;28.24
71857;BME280;63344;46.980;28.882;2023-05-20T12:49:29;100964.34;;;26.49;28.48
71857;BME280;63344;46.980;28.882;2023-05-20T12:51:59;100946.44;;;26.46;28.77
71857;BME280;63344;46.980;28.882;2023-05-20T12:54:45;100947.00;;;26.68;29.19
71857;BME280;63344;46.980;28.882;2023-05-20T12:57:13;100937.03;;;26.94;29.58
71857;BME280;63344;46.980;28.882;2023-05-20T12:59:40;100931.53;;;27.12;29.57
71857;BME280;63344;46.980;28.882;2023-05-20T13:02:07;100927.41;;;27.08;30.19
71857;BME280;63344;46.980;28.882;2023-05-20T13:04:36;100920.75;;;27.11;30.22
71857;BME280;63344;46.980;28.882;2023-05-20T13:07:04;100921.72;;;27.01;29.63
71857;BME280;63344;46.980;28.882;2023-05-20T13:09:34;100915.44;;;26.83;28.23
71857;BME280;63344;46.980;28.882;2023-05-20T13:12:02;100927.78;;;26.69;28.56